Etusivu
METAR-TAF:

METAR-TAF

Lentoasemat :

Kalskag, Alaska, Yhdysvallat

Leveyspiiri: 61-32-11N, Pituuspiiri: 160-20-29W, korkeus merenpinnasta: 17 m

Tämänhetkinen sää

Tämä raportti tehtiin 56 minuuttia sitten, kello 12.56 UTC
Tuuli 3 kn eri suunnista
Lämpötila 11°C
Kosteus 82%
Ilmanpaine 1023 hPa
Näkyvyys: 16.1 km
selkeää

METAR: PALG 151256Z AUTO VRB03KT 10SM CLR 11/08 A3021 RMK AO2 SLP231 T01110083 PNO $

Aika: 05:52 (13:52 UTC)


TAF: puuttuu

Säähavainnot ja -ennusteet yli 4000 lentoasemalta (METAR- ja TAF-raportit).

Käytössä olevat sääasemat on merkitty karttaan keltaisilla ja punaisilla pisteillä.

Aseta hiiri pisteen päälle nähdäksesi sääaseman nimen.

Klikkaa sitten nähdäksesi säähavainnot ja -ennusteet.

Kartan vaihtaminen: klikkaa mustalla rastilla varustettuja vihreitä pisteitä, niin voit zoomata sisään; viivalla varustettua vihreää pistettä, niin voit zoomata ulos tai vihreitä nuolia, niin pääset viereisille kartoille.


METAR-TAF: